Погода Близнакина неделю

Смоленская область, Россия

24 - 30 мая
  • 24мая
    Сегодня
    +8°
    +22°
    Ясно и безоблачно
    ВремяПогодаТемператураВлажностьДавлениеВетер, м/сВероятность осадков
    00:00Ясно и безоблачно+12°C55 %749 мм1.0 м/с2 %
    03:00Ясно и безоблачно+10°C61 %750 мм1.0 м/с2 %
    06:00Ясно и безоблачно+10°C61 %751 мм1.3 м/с2 %
    09:00Ясно и безоблачно+16°C52 %751 мм2.1 м/с2 %
    12:00Ясно и безоблачно+19°C36 %752 мм2.6 м/с2 %
    15:00Ясно и безоблачно+21°C33 %751 мм2.4 м/с2 %
    18:00Ясно и безоблачно+20°C34 %750 мм1.8 м/с2 %
    21:00Ясно и безоблачно+14°C50 %750 мм0.7 м/с2 %
  • 25мая
    Суббота
    +10°
    +24°
    Ясно и безоблачно
    ВремяПогодаТемператураВлажностьДавлениеВетер, м/сВероятность осадков
    00:00Ясно и безоблачно+10°C57 %750 мм0.8 м/с2 %
    03:00Ясно и безоблачно+9°C66 %750 мм0.9 м/с2 %
    06:00Ясно и безоблачно+10°C69 %750 мм1.0 м/с2 %
    09:00Ясно и безоблачно+16°C56 %750 мм1.5 м/с2 %
    12:00Ясно и безоблачно+21°C48 %750 мм1.8 м/с2 %
    15:00Ясно и безоблачно+23°C40 %749 мм1.7 м/с2 %
    18:00Ясно и безоблачно+22°C41 %748 мм1.1 м/с2 %
    21:00Ясно и безоблачно+16°C68 %747 мм0.1 м/с2 %
  • 26мая
    Воскресенье
    +12°
    +25°
    Небольшая облачность
    ВремяПогодаТемператураВлажностьДавлениеВетер, м/сВероятность осадков
    00:00Ясно и безоблачно+13°C71 %747 мм0.3 м/с2 %
    03:00Ясно и безоблачно+11°C74 %747 мм0.5 м/с2 %
    06:00Практически безоблачно+13°C74 %747 мм0.6 м/с2 %
    09:00Ясно и безоблачно+19°C59 %748 мм0.9 м/с2 %
    12:00Практически безоблачно+23°C41 %748 мм1.2 м/с2 %
    15:00Небольшая облачность+25°C36 %747 мм1.4 м/с2 %
    18:00Практически безоблачно+23°C40 %746 мм1.0 м/с2 %
    21:00Ясно и безоблачно+18°C67 %746 мм0.0 м/с2 %
  • 27мая
    Понедельник
    +13°
    +26°
    Небольшая облачность
    ВремяПогодаТемператураВлажностьДавлениеВетер, м/сВероятность осадков
    00:00Ясно и безоблачно+15°C65 %747 мм0.8 м/с2 %
    03:00Ясно и безоблачно+14°C82 %747 мм0.8 м/с2 %
    06:00Ясно и безоблачно+14°C88 %747 мм1.1 м/с2 %
    09:00Ясно и безоблачно+19°C73 %748 мм1.4 м/с2 %
    12:00Ясно и безоблачно+23°C55 %748 мм1.4 м/с14 %
    15:00Небольшая облачность+25°C51 %747 мм1.5 м/с28 %
    18:00Ясно и безоблачно+23°C53 %747 мм0.9 м/с31 %
    21:00Ясно и безоблачно+19°C69 %746 мм0.2 м/с6 %
  • 28мая
    Вторник
    +13°
    +27°
    Практически безоблачно
    ВремяПогодаТемператураВлажностьДавлениеВетер, м/сВероятность осадков
    00:00Ясно и безоблачно+16°C78 %746 мм0.4 м/с2 %
    03:00Ясно и безоблачно+14°C90 %747 мм0.5 м/с2 %
    06:00Ясно и безоблачно+14°C89 %746 мм0.8 м/с2 %
    09:00Ясно и безоблачно+19°C70 %747 мм1.2 м/с2 %
    12:00Ясно и безоблачно+23°C49 %746 мм1.7 м/с6 %
    15:00Практически безоблачно+25°C42 %746 мм1.7 м/с10 %
    18:00Небольшая облачность+24°C42 %745 мм1.2 м/с16 %
    21:00Практически безоблачно+19°C62 %744 мм0.0 м/с6 %
Мы используем cookies
Соглашаюсь